CheckWX is a tool to help pilots better visualize weather data.  It is not intended as a substitute for an official pre-flight weather briefing.

05:03:14 UTC

3AU METAR
Augusta Municipal Airport
Augusta, Kansas, USA
Current

8 mins ago

K3AU 180455Z AUTO 16010G18KT 10SM CLR 27/22 A2976 RMK AO2
Observed
Aug-18 @ 04:55 UTC
Wind
  • 160° at 10 KTS
  • Gusting to 18 KTS
Visibility
10 SM
Flight Rules
VFR
Cloud Levels
  • Clear skies
Temperature
27°C / 81°F
Dewpoint
22°C / 72°F
Heat Index
29°C / 85°F
Humidity
74%
Altimeter
29.76" Hg
Pressure
1007.82 hPa
Previous

28 mins ago

K3AU 180435Z AUTO 15012KT 10SM CLR 27/22 A2976 RMK AO2
Observed
Aug-18 @ 04:35 UTC
Wind
  • 150° at 12 KTS
Visibility
10 SM
Flight Rules
VFR
Cloud Levels
  • Clear skies
Temperature
27°C / 81°F
Dewpoint
22°C / 72°F
Heat Index
29°C / 85°F
Humidity
74%
Altimeter
29.76" Hg
Pressure
1007.82 hPa
Previous

48 mins ago

K3AU 180415Z AUTO 15011KT 10SM CLR 27/22 A2976 RMK AO2
Observed
Aug-18 @ 04:15 UTC
Wind
  • 150° at 11 KTS
Visibility
10 SM
Flight Rules
VFR
Cloud Levels
  • Clear skies
Temperature
27°C / 81°F
Dewpoint
22°C / 72°F
Heat Index
29°C / 85°F
Humidity
74%
Altimeter
29.76" Hg
Pressure
1007.82 hPa